LIPY/AOI METAR and TAF weather

Enter ICAO airport designator
Station Type Date Time Source
LIPY METAR 2019/02/16 06:50 UTC NOAA

LIPY 160650Z VRB02KT 8000 FEW020 02/02 Q1031


Station Type Date Time Source
LIPY Decoded METAR 2019/02/16 06:50 UTC NOAA

Falconara, Italy (LIPY) 43-37N 013-22E 10M
Feb 16, 2019 - 01:50 AM EST / 2019.02.16 0650 UTC
Wind: Variable at 2 MPH (2 KT):0
Visibility: 4 mile(s):0
Sky conditions: mostly clear
Temperature: 35 F (2 C)
Dew Point: 35 F (2 C)
Relative Humidity: 100%
Pressure (altimeter): 30.45 in. Hg (1031 hPa)
ob: LIPY 160650Z VRB02KT 8000 FEW020 02/02 Q1031
cycle: 7

Station Type Date Time Source
LIPY TAF 2019/02/16 06:21 UTC NOAA

TAF LIPY 160500Z 1606/1706 VRB05KT 8000 NSC


Example: see airport list